createdAt,value
2019-05-13T06:19:04.208Z,29.17
2019-05-13T06:29:07.430Z,32.73
2019-05-13T06:39:12.348Z,34.52
2019-05-13T06:49:15.763Z,34.45
2019-05-13T06:59:19.193Z,22.21
2019-05-13T07:09:22.279Z,21.65
2019-05-13T07:19:26.404Z,21.02
2019-05-13T07:29:32.186Z,20.74
2019-05-13T07:39:37.246Z,21.84
2019-05-13T07:49:42.007Z,21.54
2019-05-13T07:59:45.357Z,23.75
2019-05-13T08:11:01.077Z,18.99
2019-05-13T08:21:04.335Z,18.99
2019-05-13T08:31:07.627Z,14.13
2019-05-13T08:41:18.851Z,16.55
2019-05-13T08:51:15.588Z,16.82
2019-05-13T09:01:22.516Z,21.77
2019-05-13T09:11:24.746Z,20.76
2019-05-13T09:21:28.485Z,12.94
2019-05-13T09:31:32.370Z,12.63
2019-05-13T09:41:40.841Z,14.55
2019-05-13T09:51:41.698Z,15.78
2019-05-13T10:01:44.934Z,14.15
2019-05-13T10:11:48.095Z,16.73
2019-05-13T10:21:52.470Z,14.16
2019-05-13T10:31:56.054Z,13.76
2019-05-13T10:41:59.051Z,12.44
2019-05-13T10:52:03.182Z,14.14
2019-05-13T11:02:07.286Z,14.82
2019-05-13T11:12:12.227Z,14.68
2019-05-13T11:22:15.805Z,17.42
2019-05-13T11:32:21.618Z,17.83
2019-05-13T11:42:25.117Z,19.11
2019-05-13T11:52:28.599Z,19.40
2019-05-13T12:02:32.663Z,19.50
2019-05-13T12:12:35.985Z,18.63
2019-05-13T12:22:39.223Z,20.09
2019-05-13T12:32:43.688Z,20.25
2019-05-13T12:42:47.479Z,13.80
2019-05-13T12:52:51.585Z,14.53
2019-05-13T13:02:54.983Z,15.66
2019-05-13T13:13:22.426Z,15.86
2019-05-13T13:23:24.306Z,13.16
2019-05-13T13:33:28.754Z,13.65
2019-05-13T13:43:36.981Z,13.93
2019-05-13T13:53:38.606Z,13.24
2019-05-13T14:03:46.085Z,13.95
2019-05-13T14:13:46.712Z,17.78
2019-05-13T14:32:12.224Z,14.82
2019-05-13T14:42:13.809Z,13.21
2019-05-13T14:52:15.325Z,13.46
2019-05-13T15:02:17.181Z,13.16
2019-05-13T15:12:21.452Z,12.23
2019-05-13T15:22:22.923Z,13.97
2019-05-13T15:32:24.480Z,15.41
2019-05-13T15:42:26.029Z,15.95
2019-05-13T15:52:27.663Z,13.36
2019-05-13T16:02:31.322Z,13.14
2019-05-13T16:12:32.605Z,13.15
2019-05-13T16:22:34.065Z,13.14
2019-05-13T16:32:35.803Z,12.06
2019-05-13T16:42:37.466Z,11.75
2019-05-13T16:52:39.089Z,12.97
2019-05-13T17:02:42.153Z,13.63
2019-05-13T17:12:44.003Z,12.11
2019-05-13T17:22:45.721Z,12.70
2019-05-13T17:32:47.201Z,11.54
2019-05-13T17:42:48.767Z,11.54
2019-05-13T17:52:51.377Z,11.78
2019-05-13T18:02:53.371Z,11.57
2019-05-13T18:12:54.854Z,11.86
2019-05-13T18:22:56.298Z,11.07
2019-05-13T18:33:01.040Z,10.44
2019-05-13T18:43:02.268Z,9.73
2019-05-13T18:53:03.789Z,8.92
2019-05-13T19:03:05.466Z,8.40
2019-05-13T19:13:06.953Z,7.93
2019-05-13T19:23:08.533Z,7.38
2019-05-13T19:33:12.107Z,6.78
2019-05-13T19:43:13.592Z,6.46
2019-05-13T19:53:15.020Z,5.87
2019-05-13T20:03:16.693Z,5.72
2019-05-13T20:13:18.389Z,5.45
2019-05-13T20:23:21.300Z,5.16
2019-05-13T20:33:22.933Z,5.00
2019-05-13T20:43:24.398Z,4.49
2019-05-13T20:53:25.938Z,4.10
2019-05-13T21:03:28.500Z,4.07
2019-05-13T21:13:31.810Z,3.65
2019-05-13T21:23:33.357Z,3.50
2019-05-13T21:33:34.960Z,2.92
2019-05-13T21:43:36.954Z,2.31
2019-05-13T21:53:38.387Z,2.07
2019-05-13T22:03:42.030Z,2.12
